sensor_id;sensor_type;location;lat;lon;timestamp;temperature;humidity
55313;DHT22;46892;45.668;11.756;2024-01-06T00:02:23;8.40;94.90
55313;DHT22;46892;45.668;11.756;2024-01-06T00:04:49;8.40;94.90
55313;DHT22;46892;45.668;11.756;2024-01-06T00:07:15;8.50;95.00
55313;DHT22;46892;45.668;11.756;2024-01-06T00:09:41;8.50;95.00
55313;DHT22;46892;45.668;11.756;2024-01-06T00:12:06;8.40;95.00
55313;DHT22;46892;45.668;11.756;2024-01-06T00:14:32;8.50;95.00
55313;DHT22;46892;45.668;11.756;2024-01-06T00:16:58;8.50;94.90
55313;DHT22;46892;45.668;11.756;2024-01-06T00:19:23;8.50;94.90
55313;DHT22;46892;45.668;11.756;2024-01-06T00:21:49;8.50;94.90
55313;DHT22;46892;45.668;11.756;2024-01-06T00:24:15;8.50;94.90
55313;DHT22;46892;45.668;11.756;2024-01-06T00:26:41;8.50;94.90
55313;DHT22;46892;45.668;11.756;2024-01-06T00:29:06;8.40;94.90
55313;DHT22;46892;45.668;11.756;2024-01-06T00:31:32;8.50;94.80
55313;DHT22;46892;45.668;11.756;2024-01-06T00:33:58;8.50;94.80
55313;DHT22;46892;45.668;11.756;2024-01-06T00:36:24;8.50;94.80
55313;DHT22;46892;45.668;11.756;2024-01-06T00:38:49;8.50;94.80
55313;DHT22;46892;45.668;11.756;2024-01-06T00:41:15;8.50;94.70
55313;DHT22;46892;45.668;11.756;2024-01-06T00:43:42;8.60;94.70
55313;DHT22;46892;45.668;11.756;2024-01-06T00:46:07;8.60;94.70
55313;DHT22;46892;45.668;11.756;2024-01-06T00:48:33;8.60;94.70
55313;DHT22;46892;45.668;11.756;2024-01-06T00:50:59;8.60;94.60
55313;DHT22;46892;45.668;11.756;2024-01-06T00:53:25;8.50;94.50
55313;DHT22;46892;45.668;11.756;2024-01-06T00:55:50;8.50;94.50
55313;DHT22;46892;45.668;11.756;2024-01-06T00:58:16;8.50;94.50
55313;DHT22;46892;45.668;11.756;2024-01-06T01:00:42;8.40;94.40
55313;DHT22;46892;45.668;11.756;2024-01-06T01:03:08;8.40;94.40
55313;DHT22;46892;45.668;11.756;2024-01-06T01:05:33;8.40;94.30
55313;DHT22;46892;45.668;11.756;2024-01-06T01:07:59;8.40;94.30
55313;DHT22;46892;45.668;11.756;2024-01-06T01:10:25;8.30;94.30
55313;DHT22;46892;45.668;11.756;2024-01-06T01:12:51;8.40;94.40
55313;DHT22;46892;45.668;11.756;2024-01-06T01:15:16;8.50;94.30
55313;DHT22;46892;45.668;11.756;2024-01-06T01:17:42;8.40;93.90
55313;DHT22;46892;45.668;11.756;2024-01-06T01:20:08;8.30;93.90
55313;DHT22;46892;45.668;11.756;2024-01-06T01:22:34;8.30;94.00
55313;DHT22;46892;45.668;11.756;2024-01-06T01:25:00;8.30;94.10
55313;DHT22;46892;45.668;11.756;2024-01-06T01:27:30;8.30;94.10
55313;DHT22;46892;45.668;11.756;2024-01-06T01:29:56;8.20;94.10
55313;DHT22;46892;45.668;11.756;2024-01-06T01:32:22;8.20;94.10
55313;DHT22;46892;45.668;11.756;2024-01-06T01:34:48;8.20;93.90
55313;DHT22;46892;45.668;11.756;2024-01-06T01:37:14;8.10;93.70
55313;DHT22;46892;45.668;11.756;2024-01-06T01:39:39;8.10;93.60
55313;DHT22;46892;45.668;11.756;2024-01-06T01:42:05;8.00;93.40
55313;DHT22;46892;45.668;11.756;2024-01-06T01:44:31;8.00;93.30
55313;DHT22;46892;45.668;11.756;2024-01-06T01:46:57;7.90;93.20
55313;DHT22;46892;45.668;11.756;2024-01-06T01:49:22;7.90;93.10
55313;DHT22;46892;45.668;11.756;2024-01-06T01:51:49;7.90;93.10
55313;DHT22;46892;45.668;11.756;2024-01-06T01:54:15;7.90;93.00
55313;DHT22;46892;45.668;11.756;2024-01-06T01:56:41;7.90;92.80
55313;DHT22;46892;45.668;11.756;2024-01-06T01:59:12;7.90;92.70
55313;DHT22;46892;45.668;11.756;2024-01-06T02:01:39;7.80;92.80
55313;DHT22;46892;45.668;11.756;2024-01-06T02:04:05;7.90;92.80
55313;DHT22;46892;45.668;11.756;2024-01-06T02:06:31;7.90;92.80
55313;DHT22;46892;45.668;11.756;2024-01-06T02:08:56;7.80;92.70
55313;DHT22;46892;45.668;11.756;2024-01-06T02:11:23;7.80;92.60
55313;DHT22;46892;45.668;11.756;2024-01-06T02:13:49;7.90;92.50
55313;DHT22;46892;45.668;11.756;2024-01-06T02:16:14;7.80;92.30
55313;DHT22;46892;45.668;11.756;2024-01-06T02:18:40;7.90;92.00
55313;DHT22;46892;45.668;11.756;2024-01-06T02:21:06;7.90;92.00
55313;DHT22;46892;45.668;11.756;2024-01-06T02:23:35;7.90;91.70
55313;DHT22;46892;45.668;11.756;2024-01-06T02:26:01;7.90;91.40
55313;DHT22;46892;45.668;11.756;2024-01-06T02:28:27;7.90;91.60
55313;DHT22;46892;45.668;11.756;2024-01-06T02:30:53;7.90;91.50
55313;DHT22;46892;45.668;11.756;2024-01-06T02:33:18;7.90;91.20
55313;DHT22;46892;45.668;11.756;2024-01-06T02:35:49;7.90;91.10
55313;DHT22;46892;45.668;11.756;2024-01-06T02:38:15;7.90;91.00
55313;DHT22;46892;45.668;11.756;2024-01-06T02:40:41;7.90;90.70
55313;DHT22;46892;45.668;11.756;2024-01-06T02:43:08;7.90;90.90
55313;DHT22;46892;45.668;11.756;2024-01-06T02:45:34;7.90;91.10
55313;DHT22;46892;45.668;11.756;2024-01-06T02:48:00;7.90;91.10
55313;DHT22;46892;45.668;11.756;2024-01-06T02:50:26;7.90;91.30
55313;DHT22;46892;45.668;11.756;2024-01-06T02:52:52;7.90;91.50
55313;DHT22;46892;45.668;11.756;2024-01-06T02:55:17;7.90;91.60
55313;DHT22;46892;45.668;11.756;2024-01-06T02:57:43;7.90;91.60
55313;DHT22;46892;45.668;11.756;2024-01-06T03:00:09;7.90;91.60
55313;DHT22;46892;45.668;11.756;2024-01-06T03:02:35;7.90;91.60
55313;DHT22;46892;45.668;11.756;2024-01-06T03:05:02;7.90;91.90
55313;DHT22;46892;45.668;11.756;2024-01-06T03:07:28;7.90;92.10
55313;DHT22;46892;45.668;11.756;2024-01-06T03:09:53;7.90;92.30
55313;DHT22;46892;45.668;11.756;2024-01-06T03:12:19;8.00;92.50
55313;DHT22;46892;45.668;11.756;2024-01-06T03:14:45;8.00;92.60
55313;DHT22;46892;45.668;11.756;2024-01-06T03:17:10;8.00;92.70
55313;DHT22;46892;45.668;11.756;2024-01-06T03:19:36;8.00;92.80
55313;DHT22;46892;45.668;11.756;2024-01-06T03:22:02;8.10;93.00
55313;DHT22;46892;45.668;11.756;2024-01-06T03:24:28;8.10;93.00
55313;DHT22;46892;45.668;11.756;2024-01-06T03:26:54;8.20;93.30
55313;DHT22;46892;45.668;11.756;2024-01-06T03:29:20;8.20;93.60
55313;DHT22;46892;45.668;11.756;2024-01-06T03:31:46;8.20;93.80
55313;DHT22;46892;45.668;11.756;2024-01-06T03:34:12;8.30;93.90
55313;DHT22;46892;45.668;11.756;2024-01-06T03:36:39;8.30;93.80
55313;DHT22;46892;45.668;11.756;2024-01-06T03:39:04;8.30;93.80
55313;DHT22;46892;45.668;11.756;2024-01-06T03:41:30;8.30;93.80
55313;DHT22;46892;45.668;11.756;2024-01-06T03:43:56;8.30;93.90
55313;DHT22;46892;45.668;11.756;2024-01-06T03:46:22;8.30;93.90
55313;DHT22;46892;45.668;11.756;2024-01-06T03:48:48;8.30;93.80
55313;DHT22;46892;45.668;11.756;2024-01-06T03:51:14;8.30;93.70
55313;DHT22;46892;45.668;11.756;2024-01-06T03:53:40;8.30;93.70
55313;DHT22;46892;45.668;11.756;2024-01-06T03:56:06;8.30;93.70
55313;DHT22;46892;45.668;11.756;2024-01-06T03:58:32;8.30;93.70
55313;DHT22;46892;45.668;11.756;2024-01-06T04:00:58;8.30;93.70
55313;DHT22;46892;45.668;11.756;2024-01-06T04:03:24;8.40;93.60
55313;DHT22;46892;45.668;11.756;2024-01-06T04:05:49;8.30;93.70
55313;DHT22;46892;45.668;11.756;2024-01-06T04:08:15;8.30;93.70
55313;DHT22;46892;45.668;11.756;2024-01-06T04:10:41;8.40;93.70
55313;DHT22;46892;45.668;11.756;2024-01-06T04:13:07;8.40;93.70
55313;DHT22;46892;45.668;11.756;2024-01-06T04:15:33;8.40;93.70
55313;DHT22;46892;45.668;11.756;2024-01-06T04:18:02;8.30;93.70
55313;DHT22;46892;45.668;11.756;2024-01-06T04:20:31;8.40;93.70
55313;DHT22;46892;45.668;11.756;2024-01-06T04:22:58;8.30;93.60
55313;DHT22;46892;45.668;11.756;2024-01-06T04:25:24;8.30;93.50
55313;DHT22;46892;45.668;11.756;2024-01-06T04:27:49;8.30;93.50
55313;DHT22;46892;45.668;11.756;2024-01-06T04:30:16;8.30;93.40
55313;DHT22;46892;45.668;11.756;2024-01-06T04:32:42;8.30;93.30
55313;DHT22;46892;45.668;11.756;2024-01-06T04:35:08;8.30;93.30
55313;DHT22;46892;45.668;11.756;2024-01-06T04:37:34;8.30;93.30
55313;DHT22;46892;45.668;11.756;2024-01-06T04:40:00;8.30;93.30
55313;DHT22;46892;45.668;11.756;2024-01-06T04:42:26;8.30;93.30
55313;DHT22;46892;45.668;11.756;2024-01-06T04:44:52;8.30;93.40
55313;DHT22;46892;45.668;11.756;2024-01-06T04:47:18;8.30;93.30
55313;DHT22;46892;45.668;11.756;2024-01-06T04:49:44;8.30;93.30
55313;DHT22;46892;45.668;11.756;2024-01-06T04:52:10;8.30;93.20
55313;DHT22;46892;45.668;11.756;2024-01-06T04:54:36;8.30;93.20
55313;DHT22;46892;45.668;11.756;2024-01-06T04:57:01;8.30;93.30
55313;DHT22;46892;45.668;11.756;2024-01-06T04:59:27;8.30;93.20
55313;DHT22;46892;45.668;11.756;2024-01-06T05:01:53;8.30;93.30
55313;DHT22;46892;45.668;11.756;2024-01-06T05:04:19;8.30;93.20
55313;DHT22;46892;45.668;11.756;2024-01-06T05:06:45;8.30;93.30
55313;DHT22;46892;45.668;11.756;2024-01-06T05:09:11;8.20;93.20
55313;DHT22;46892;45.668;11.756;2024-01-06T05:11:36;8.20;93.20
55313;DHT22;46892;45.668;11.756;2024-01-06T05:14:02;8.20;93.30
55313;DHT22;46892;45.668;11.756;2024-01-06T05:16:28;8.10;93.30
55313;DHT22;46892;45.668;11.756;2024-01-06T05:18:54;8.10;93.30
55313;DHT22;46892;45.668;11.756;2024-01-06T05:21:20;8.10;93.40
55313;DHT22;46892;45.668;11.756;2024-01-06T05:23:46;8.20;93.40
55313;DHT22;46892;45.668;11.756;2024-01-06T05:26:11;8.20;93.50
55313;DHT22;46892;45.668;11.756;2024-01-06T05:28:39;8.20;93.50
55313;DHT22;46892;45.668;11.756;2024-01-06T05:31:06;8.20;93.50
55313;DHT22;46892;45.668;11.756;2024-01-06T05:33:31;8.20;93.50
55313;DHT22;46892;45.668;11.756;2024-01-06T05:35:57;8.30;93.60
55313;DHT22;46892;45.668;11.756;2024-01-06T05:38:23;8.30;93.60
55313;DHT22;46892;45.668;11.756;2024-01-06T05:40:49;8.30;93.60
55313;DHT22;46892;45.668;11.756;2024-01-06T05:43:14;8.30;93.70
55313;DHT22;46892;45.668;11.756;2024-01-06T05:45:40;8.30;93.70
55313;DHT22;46892;45.668;11.756;2024-01-06T05:48:10;8.30;93.70
55313;DHT22;46892;45.668;11.756;2024-01-06T05:50:38;8.30;93.80
55313;DHT22;46892;45.668;11.756;2024-01-06T05:53:05;8.30;93.80
55313;DHT22;46892;45.668;11.756;2024-01-06T05:55:30;8.30;93.80
55313;DHT22;46892;45.668;11.756;2024-01-06T05:57:56;8.30;93.80
55313;DHT22;46892;45.668;11.756;2024-01-06T06:00:22;8.30;93.80
55313;DHT22;46892;45.668;11.756;2024-01-06T06:02:48;8.30;94.00
55313;DHT22;46892;45.668;11.756;2024-01-06T06:05:14;8.30;93.80
55313;DHT22;46892;45.668;11.756;2024-01-06T06:07:40;8.30;93.20
55313;DHT22;46892;45.668;11.756;2024-01-06T06:10:10;8.20;92.70
55313;DHT22;46892;45.668;11.756;2024-01-06T06:12:36;8.10;92.50
55313;DHT22;46892;45.668;11.756;2024-01-06T06:15:03;8.10;92.50
55313;DHT22;46892;45.668;11.756;2024-01-06T06:17:30;8.10;92.60
55313;DHT22;46892;45.668;11.756;2024-01-06T06:19:57;8.00;92.50
55313;DHT22;46892;45.668;11.756;2024-01-06T06:22:23;8.00;92.70
55313;DHT22;46892;45.668;11.756;2024-01-06T06:24:51;8.00;93.10
55313;DHT22;46892;45.668;11.756;2024-01-06T06:27:17;8.10;93.40
55313;DHT22;46892;45.668;11.756;2024-01-06T06:29:43;8.10;93.60
55313;DHT22;46892;45.668;11.756;2024-01-06T06:32:08;8.20;93.80
55313;DHT22;46892;45.668;11.756;2024-01-06T06:34:34;8.20;93.90
55313;DHT22;46892;45.668;11.756;2024-01-06T06:37:00;8.30;94.00
55313;DHT22;46892;45.668;11.756;2024-01-06T06:39:26;8.30;94.00
55313;DHT22;46892;45.668;11.756;2024-01-06T06:41:52;8.30;94.00
55313;DHT22;46892;45.668;11.756;2024-01-06T06:44:18;8.30;93.90
55313;DHT22;46892;45.668;11.756;2024-01-06T06:46:44;8.30;93.90
55313;DHT22;46892;45.668;11.756;2024-01-06T06:49:10;8.30;93.90
55313;DHT22;46892;45.668;11.756;2024-01-06T06:51:35;8.30;94.00
55313;DHT22;46892;45.668;11.756;2024-01-06T06:54:01;8.30;94.10
55313;DHT22;46892;45.668;11.756;2024-01-06T06:56:32;8.30;94.20
55313;DHT22;46892;45.668;11.756;2024-01-06T06:59:01;8.30;94.30
55313;DHT22;46892;45.668;11.756;2024-01-06T07:01:27;8.40;94.30
55313;DHT22;46892;45.668;11.756;2024-01-06T07:03:53;8.30;94.30
55313;DHT22;46892;45.668;11.756;2024-01-06T07:06:19;8.30;94.40
55313;DHT22;46892;45.668;11.756;2024-01-06T07:08:45;8.40;94.40
55313;DHT22;46892;45.668;11.756;2024-01-06T07:11:11;8.30;94.40
55313;DHT22;46892;45.668;11.756;2024-01-06T07:13:37;8.40;94.50
55313;DHT22;46892;45.668;11.756;2024-01-06T07:16:03;8.40;94.50
55313;DHT22;46892;45.668;11.756;2024-01-06T07:18:31;8.40;94.60
55313;DHT22;46892;45.668;11.756;2024-01-06T07:20:57;8.40;94.60
55313;DHT22;46892;45.668;11.756;2024-01-06T07:23:22;8.40;94.60
55313;DHT22;46892;45.668;11.756;2024-01-06T07:25:48;8.40;94.70
55313;DHT22;46892;45.668;11.756;2024-01-06T07:28:14;8.40;94.70
55313;DHT22;46892;45.668;11.756;2024-01-06T07:30:40;8.40;94.60
55313;DHT22;46892;45.668;11.756;2024-01-06T07:33:06;8.40;94.50
55313;DHT22;46892;45.668;11.756;2024-01-06T07:35:31;8.30;94.40
55313;DHT22;46892;45.668;11.756;2024-01-06T07:37:57;8.30;94.20
55313;DHT22;46892;45.668;11.756;2024-01-06T07:40:23;8.30;94.10
55313;DHT22;46892;45.668;11.756;2024-01-06T07:42:51;8.30;93.90
55313;DHT22;46892;45.668;11.756;2024-01-06T07:45:17;8.20;93.70
55313;DHT22;46892;45.668;11.756;2024-01-06T07:47:48;8.20;93.80
55313;DHT22;46892;45.668;11.756;2024-01-06T07:50:18;8.20;93.80
55313;DHT22;46892;45.668;11.756;2024-01-06T07:52:43;8.10;93.80
55313;DHT22;46892;45.668;11.756;2024-01-06T07:55:09;8.20;93.80
55313;DHT22;46892;45.668;11.756;2024-01-06T07:57:35;8.20;93.90
55313;DHT22;46892;45.668;11.756;2024-01-06T08:00:01;8.10;93.90
55313;DHT22;46892;45.668;11.756;2024-01-06T08:02:26;8.20;93.90
55313;DHT22;46892;45.668;11.756;2024-01-06T08:04:52;8.20;93.80
55313;DHT22;46892;45.668;11.756;2024-01-06T08:07:19;8.10;93.80
55313;DHT22;46892;45.668;11.756;2024-01-06T08:09:45;8.20;93.80
55313;DHT22;46892;45.668;11.756;2024-01-06T08:12:11;8.20;93.70
55313;DHT22;46892;45.668;11.756;2024-01-06T08:14:37;8.20;93.60
55313;DHT22;46892;45.668;11.756;2024-01-06T08:17:03;8.20;93.60
55313;DHT22;46892;45.668;11.756;2024-01-06T08:19:29;8.20;93.50
55313;DHT22;46892;45.668;11.756;2024-01-06T08:21:56;8.20;93.50
55313;DHT22;46892;45.668;11.756;2024-01-06T08:24:22;8.20;93.60
55313;DHT22;46892;45.668;11.756;2024-01-06T08:26:48;8.20;93.60
55313;DHT22;46892;45.668;11.756;2024-01-06T08:29:13;8.30;93.50
55313;DHT22;46892;45.668;11.756;2024-01-06T08:31:41;8.30;93.30
55313;DHT22;46892;45.668;11.756;2024-01-06T08:34:07;8.20;93.40
55313;DHT22;46892;45.668;11.756;2024-01-06T08:36:34;8.20;93.30
55313;DHT22;46892;45.668;11.756;2024-01-06T08:39:00;8.20;93.20
55313;DHT22;46892;45.668;11.756;2024-01-06T08:41:26;8.20;93.30
55313;DHT22;46892;45.668;11.756;2024-01-06T08:43:51;8.20;93.30
55313;DHT22;46892;45.668;11.756;2024-01-06T08:46:17;8.20;93.30
55313;DHT22;46892;45.668;11.756;2024-01-06T08:48:43;8.20;93.20
55313;DHT22;46892;45.668;11.756;2024-01-06T08:51:09;8.20;93.20
55313;DHT22;46892;45.668;11.756;2024-01-06T08:53:34;8.20;93.00
55313;DHT22;46892;45.668;11.756;2024-01-06T08:56:00;8.20;92.90
55313;DHT22;46892;45.668;11.756;2024-01-06T08:58:26;8.30;92.90
55313;DHT22;46892;45.668;11.756;2024-01-06T09:00:53;8.30;92.80
55313;DHT22;46892;45.668;11.756;2024-01-06T09:03:19;8.20;92.90
55313;DHT22;46892;45.668;11.756;2024-01-06T09:05:55;8.20;93.00
55313;DHT22;46892;45.668;11.756;2024-01-06T09:08:21;8.20;92.90
55313;DHT22;46892;45.668;11.756;2024-01-06T09:10:47;8.30;92.90
55313;DHT22;46892;45.668;11.756;2024-01-06T09:13:17;8.30;92.80
55313;DHT22;46892;45.668;11.756;2024-01-06T09:18:09;8.30;92.80
55313;DHT22;46892;45.668;11.756;2024-01-06T09:20:35;8.30;92.60
55313;DHT22;46892;45.668;11.756;2024-01-06T09:23:01;8.30;92.70
55313;DHT22;46892;45.668;11.756;2024-01-06T09:25:26;8.30;92.80
55313;DHT22;46892;45.668;11.756;2024-01-06T09:27:52;8.30;92.90
55313;DHT22;46892;45.668;11.756;2024-01-06T09:30:18;8.30;93.00
55313;DHT22;46892;45.668;11.756;2024-01-06T09:32:44;8.30;92.80
55313;DHT22;46892;45.668;11.756;2024-01-06T09:35:10;8.30;92.80
55313;DHT22;46892;45.668;11.756;2024-01-06T09:37:36;8.40;92.60
55313;DHT22;46892;45.668;11.756;2024-01-06T09:40:02;8.40;92.60
55313;DHT22;46892;45.668;11.756;2024-01-06T09:42:27;8.30;92.50
55313;DHT22;46892;45.668;11.756;2024-01-06T09:44:53;8.40;92.40
55313;DHT22;46892;45.668;11.756;2024-01-06T09:47:22;8.40;92.40
55313;DHT22;46892;45.668;11.756;2024-01-06T09:49:50;8.40;92.30
55313;DHT22;46892;45.668;11.756;2024-01-06T09:52:21;8.40;92.20
55313;DHT22;46892;45.668;11.756;2024-01-06T09:54:51;8.40;92.00
55313;DHT22;46892;45.668;11.756;2024-01-06T09:57:17;8.50;91.70
55313;DHT22;46892;45.668;11.756;2024-01-06T09:59:44;8.40;91.70
55313;DHT22;46892;45.668;11.756;2024-01-06T10:02:14;8.40;91.90
55313;DHT22;46892;45.668;11.756;2024-01-06T10:04:40;8.40;91.90
55313;DHT22;46892;45.668;11.756;2024-01-06T10:07:06;8.40;91.70
55313;DHT22;46892;45.668;11.756;2024-01-06T10:09:32;8.40;91.70
55313;DHT22;46892;45.668;11.756;2024-01-06T10:11:58;8.40;91.60
55313;DHT22;46892;45.668;11.756;2024-01-06T10:14:25;8.40;91.70
55313;DHT22;46892;45.668;11.756;2024-01-06T10:16:53;8.40;91.70
55313;DHT22;46892;45.668;11.756;2024-01-06T10:19:20;8.40;91.40
55313;DHT22;46892;45.668;11.756;2024-01-06T10:21:46;8.40;91.50
55313;DHT22;46892;45.668;11.756;2024-01-06T10:24:12;8.40;91.50
55313;DHT22;46892;45.668;11.756;2024-01-06T10:26:39;8.40;91.70
55313;DHT22;46892;45.668;11.756;2024-01-06T10:29:05;8.40;91.70
55313;DHT22;46892;45.668;11.756;2024-01-06T10:31:31;8.40;91.80
55313;DHT22;46892;45.668;11.756;2024-01-06T10:33:57;8.40;91.80
55313;DHT22;46892;45.668;11.756;2024-01-06T10:36:23;8.40;91.80
55313;DHT22;46892;45.668;11.756;2024-01-06T10:38:49;8.40;91.80
55313;DHT22;46892;45.668;11.756;2024-01-06T10:41:16;8.40;91.80
55313;DHT22;46892;45.668;11.756;2024-01-06T10:43:42;8.40;91.80
55313;DHT22;46892;45.668;11.756;2024-01-06T10:46:09;8.40;92.00
55313;DHT22;46892;45.668;11.756;2024-01-06T10:48:38;8.30;92.10
55313;DHT22;46892;45.668;11.756;2024-01-06T10:51:08;8.40;92.10
55313;DHT22;46892;45.668;11.756;2024-01-06T10:53:36;8.40;92.10
55313;DHT22;46892;45.668;11.756;2024-01-06T10:56:04;8.40;92.10
55313;DHT22;46892;45.668;11.756;2024-01-06T10:58:32;8.40;92.00
55313;DHT22;46892;45.668;11.756;2024-01-06T11:00:59;8.40;92.10
55313;DHT22;46892;45.668;11.756;2024-01-06T11:03:32;8.50;92.10
55313;DHT22;46892;45.668;11.756;2024-01-06T11:06:02;8.40;92.10
55313;DHT22;46892;45.668;11.756;2024-01-06T11:08:28;8.50;92.00
55313;DHT22;46892;45.668;11.756;2024-01-06T11:10:56;8.50;92.10
55313;DHT22;46892;45.668;11.756;2024-01-06T11:13:24;8.40;91.80
55313;DHT22;46892;45.668;11.756;2024-01-06T11:15:52;8.40;91.90
55313;DHT22;46892;45.668;11.756;2024-01-06T11:18:34;8.40;91.90
55313;DHT22;46892;45.668;11.756;2024-01-06T11:24:19;8.50;92.00
55313;DHT22;46892;45.668;11.756;2024-01-06T11:26:53;8.50;92.00
55313;DHT22;46892;45.668;11.756;2024-01-06T11:29:20;8.50;91.90
55313;DHT22;46892;45.668;11.756;2024-01-06T11:32:19;8.50;92.10
55313;DHT22;46892;45.668;11.756;2024-01-06T11:34:53;8.50;92.10
55313;DHT22;46892;45.668;11.756;2024-01-06T11:37:24;8.50;92.00
55313;DHT22;46892;45.668;11.756;2024-01-06T11:39:51;8.50;91.90
55313;DHT22;46892;45.668;11.756;2024-01-06T11:42:16;8.60;92.00
55313;DHT22;46892;45.668;11.756;2024-01-06T11:44:50;8.60;91.90
55313;DHT22;46892;45.668;11.756;2024-01-06T11:47:17;8.60;91.70
55313;DHT22;46892;45.668;11.756;2024-01-06T11:49:45;8.60;91.70
55313;DHT22;46892;45.668;11.756;2024-01-06T11:52:14;8.60;91.80
55313;DHT22;46892;45.668;11.756;2024-01-06T11:54:40;8.60;91.70
55313;DHT22;46892;45.668;11.756;2024-01-06T11:57:07;8.60;91.70
55313;DHT22;46892;45.668;11.756;2024-01-06T11:59:33;8.70;92.00
55313;DHT22;46892;45.668;11.756;2024-01-06T12:01:58;8.70;92.00
55313;DHT22;46892;45.668;11.756;2024-01-06T12:04:24;8.70;92.10
55313;DHT22;46892;45.668;11.756;2024-01-06T12:06:52;8.70;92.20
55313;DHT22;46892;45.668;11.756;2024-01-06T12:09:18;8.80;92.10
55313;DHT22;46892;45.668;11.756;2024-01-06T12:11:44;8.70;92.40
55313;DHT22;46892;45.668;11.756;2024-01-06T12:14:12;8.70;92.50
55313;DHT22;46892;45.668;11.756;2024-01-06T12:16:38;8.70;92.40
55313;DHT22;46892;45.668;11.756;2024-01-06T12:19:04;8.70;92.50
55313;DHT22;46892;45.668;11.756;2024-01-06T12:21:30;8.70;92.20
55313;DHT22;46892;45.668;11.756;2024-01-06T12:24:19;8.70;92.10
55313;DHT22;46892;45.668;11.756;2024-01-06T12:26:46;8.70;91.20
55313;DHT22;46892;45.668;11.756;2024-01-06T12:29:13;8.70;91.40
55313;DHT22;46892;45.668;11.756;2024-01-06T12:31:41;8.70;91.50
55313;DHT22;46892;45.668;11.756;2024-01-06T12:34:10;8.70;91.40
55313;DHT22;46892;45.668;11.756;2024-01-06T12:36:39;8.70;91.30
55313;DHT22;46892;45.668;11.756;2024-01-06T12:39:10;8.60;91.40
55313;DHT22;46892;45.668;11.756;2024-01-06T12:41:40;8.70;91.40
55313;DHT22;46892;45.668;11.756;2024-01-06T12:44:06;8.70;91.30
55313;DHT22;46892;45.668;11.756;2024-01-06T12:46:33;8.70;91.20
55313;DHT22;46892;45.668;11.756;2024-01-06T12:48:58;8.70;91.20
55313;DHT22;46892;45.668;11.756;2024-01-06T12:51:24;8.70;90.80
55313;DHT22;46892;45.668;11.756;2024-01-06T12:53:50;8.70;91.10
55313;DHT22;46892;45.668;11.756;2024-01-06T12:56:16;8.70;91.00
55313;DHT22;46892;45.668;11.756;2024-01-06T12:58:42;8.70;90.80
55313;DHT22;46892;45.668;11.756;2024-01-06T13:01:09;8.70;90.80
55313;DHT22;46892;45.668;11.756;2024-01-06T13:03:35;8.70;90.60
55313;DHT22;46892;45.668;11.756;2024-01-06T13:06:01;8.60;90.80
55313;DHT22;46892;45.668;11.756;2024-01-06T13:08:27;8.60;90.80
55313;DHT22;46892;45.668;11.756;2024-01-06T13:10:54;8.60;90.90
55313;DHT22;46892;45.668;11.756;2024-01-06T13:13:20;8.70;90.70
55313;DHT22;46892;45.668;11.756;2024-01-06T13:15:45;8.70;90.80
55313;DHT22;46892;45.668;11.756;2024-01-06T13:18:12;8.70;91.00
55313;DHT22;46892;45.668;11.756;2024-01-06T13:20:38;8.70;91.10
55313;DHT22;46892;45.668;11.756;2024-01-06T13:23:06;8.70;91.20
55313;DHT22;46892;45.668;11.756;2024-01-06T13:25:33;8.70;91.20
55313;DHT22;46892;45.668;11.756;2024-01-06T13:27:59;8.80;91.40
55313;DHT22;46892;45.668;11.756;2024-01-06T13:30:25;8.80;91.30
55313;DHT22;46892;45.668;11.756;2024-01-06T13:32:52;8.80;91.30
55313;DHT22;46892;45.668;11.756;2024-01-06T13:35:20;8.80;91.30
55313;DHT22;46892;45.668;11.756;2024-01-06T13:37:46;8.80;91.20
55313;DHT22;46892;45.668;11.756;2024-01-06T13:40:14;8.90;91.00
55313;DHT22;46892;45.668;11.756;2024-01-06T13:42:40;8.90;91.00
55313;DHT22;46892;45.668;11.756;2024-01-06T13:45:06;8.90;90.90
55313;DHT22;46892;45.668;11.756;2024-01-06T13:47:32;9.00;90.80
55313;DHT22;46892;45.668;11.756;2024-01-06T13:49:58;9.00;90.80
55313;DHT22;46892;45.668;11.756;2024-01-06T13:52:24;8.90;90.50
55313;DHT22;46892;45.668;11.756;2024-01-06T13:54:50;8.90;90.60
55313;DHT22;46892;45.668;11.756;2024-01-06T13:57:16;9.00;90.70
55313;DHT22;46892;45.668;11.756;2024-01-06T13:59:42;9.00;90.90
55313;DHT22;46892;45.668;11.756;2024-01-06T14:02:11;9.00;91.00
55313;DHT22;46892;45.668;11.756;2024-01-06T14:04:37;9.00;90.40
55313;DHT22;46892;45.668;11.756;2024-01-06T14:07:03;9.00;90.40
55313;DHT22;46892;45.668;11.756;2024-01-06T14:09:30;9.00;90.40
55313;DHT22;46892;45.668;11.756;2024-01-06T14:11:55;8.90;90.50
55313;DHT22;46892;45.668;11.756;2024-01-06T14:14:21;9.00;90.90
55313;DHT22;46892;45.668;11.756;2024-01-06T14:16:47;9.00;91.00
55313;DHT22;46892;45.668;11.756;2024-01-06T14:19:13;9.00;91.20
55313;DHT22;46892;45.668;11.756;2024-01-06T14:21:40;9.00;91.20
55313;DHT22;46892;45.668;11.756;2024-01-06T14:24:06;9.00;91.40
55313;DHT22;46892;45.668;11.756;2024-01-06T14:26:32;9.00;91.50
55313;DHT22;46892;45.668;11.756;2024-01-06T14:28:58;9.10;91.60
55313;DHT22;46892;45.668;11.756;2024-01-06T14:31:25;9.10;91.60
55313;DHT22;46892;45.668;11.756;2024-01-06T14:33:52;9.10;91.60
55313;DHT22;46892;45.668;11.756;2024-01-06T14:36:18;9.10;91.60
55313;DHT22;46892;45.668;11.756;2024-01-06T14:38:44;9.00;91.50
55313;DHT22;46892;45.668;11.756;2024-01-06T14:41:12;9.10;91.70
55313;DHT22;46892;45.668;11.756;2024-01-06T14:43:38;9.10;91.80
55313;DHT22;46892;45.668;11.756;2024-01-06T14:46:03;9.10;91.90
55313;DHT22;46892;45.668;11.756;2024-01-06T14:48:31;9.00;92.00
55313;DHT22;46892;45.668;11.756;2024-01-06T14:50:56;9.00;91.90
55313;DHT22;46892;45.668;11.756;2024-01-06T14:53:22;9.00;92.00
55313;DHT22;46892;45.668;11.756;2024-01-06T14:55:48;9.00;92.00
55313;DHT22;46892;45.668;11.756;2024-01-06T14:58:14;9.00;92.10
55313;DHT22;46892;45.668;11.756;2024-01-06T15:00:39;9.00;92.10
55313;DHT22;46892;45.668;11.756;2024-01-06T15:03:05;9.00;92.00
55313;DHT22;46892;45.668;11.756;2024-01-06T15:05:31;9.00;92.10
55313;DHT22;46892;45.668;11.756;2024-01-06T15:07:57;9.00;92.10
55313;DHT22;46892;45.668;11.756;2024-01-06T15:10:23;9.00;92.20
55313;DHT22;46892;45.668;11.756;2024-01-06T15:12:51;8.90;92.20
55313;DHT22;46892;45.668;11.756;2024-01-06T15:15:17;8.90;92.20
55313;DHT22;46892;45.668;11.756;2024-01-06T15:17:46;8.90;92.30
55313;DHT22;46892;45.668;11.756;2024-01-06T15:20:12;8.90;92.00
55313;DHT22;46892;45.668;11.756;2024-01-06T15:22:38;8.80;91.90
55313;DHT22;46892;45.668;11.756;2024-01-06T15:25:04;8.80;91.90
55313;DHT22;46892;45.668;11.756;2024-01-06T15:27:31;8.80;91.90
55313;DHT22;46892;45.668;11.756;2024-01-06T15:29:58;8.80;92.00
55313;DHT22;46892;45.668;11.756;2024-01-06T15:32:27;8.80;92.10